Greybull, WY

9:13 AM MDT on September 02, 2014 (GMT -0600)
West Basin | Change Station
CLOSE
Current Station
Personal Weather Station
Location: BASIN, WY
Elevation: 3873 ft
Nearby Weather Stations

Elev 3873 ft 44.38 °N, 108.05 °W | Updated 3 minutes ago

Clear
Clear
61.3 °F
Feels Like 61.3 °F
N
0.0
Wind Variable Wind from NE
Gusts 3.0 mph

Today
High -- | Low -- °F
--% Chance of Precip.
Yesterday
High -- | Low -- °F
Precip. -- in
6:36 AM 7:46 PM
First Quarter, 52% visible
Pressure 29.92 in
Visibility 10.0 miles
Clouds Clear
Dew Point 47 °F
Humidity 60%
Rainfall 0.00 in
Snow Depth Not available.
UV 2 out of 12
Pollen 7.80 out of 12
Air Quality Not available.
Flu Activity Not available.
METAR KWRL 021453Z AUTO 27004KT 10SM CLR 13/07 A2998 RMK AO2 SLP131 T01330067 50000

More Conditions Fewer Conditions

Pressure 29.92 in
Visibility 10.0 miles
Clouds Clear
Dew Point 47 °F
Humidity 60%
Rainfall 0.00 in
Snow Depth Not available.
UV 2 out of 12
Pollen 7.80 out of 12
Air Quality Not available.
Flu Activity Not available.
METAR KWRL 021453Z AUTO 27004KT 10SM CLR 13/07 A2998 RMK AO2 SLP131 T01330067 50000

More Conditions Fewer Conditions

10-Day Weather Forecast

Almanac

Astronomy

Sep. 02, 2014 Rise Set
Actual Time 6:36 AM MDT 7:46 PM MDT
Civil Twilight 6:06 AM MDT 8:16 PM MDT
Nautical Twilight 5:30 AM MDT 8:52 PM MDT
Astronomical Twilight 4:52 AM MDT 9:30 PM MDT
Moon 2:40 PM MDT No Moon Set
Length of Visible Light 14h 10m
Length of Day
13h 10m
Tomorrow will be 2m 57s shorter.
First Quarter, 52% of the Moon is Illuminated
Today
First Quarter
Sep 8
Full
Sep 15
Last Quarter
Sep 24
New
Oct 1
First Quarter

Today's Extremes

State Highs State Lows

Community

WunderPhotos

Upload Photos

1,749,690 photos uploaded!

WunderBlogs® & News

Nearby

Snow Depth

Station Depth Elevation
Sylvan Lake 0 in 8420 ft
Gunsight Pass 3 in 9820 ft
Base Camp 0 in 7030 ft
Thumb Divide 0 in 7980 ft
Gros Ventre Summit 1 in 8750 ft

Earthquake Activity

City Distance Mag. Time & Date
No recent earthquake activity has been reported nearby.
Minimum magnitude displayed is 2.5.

Coastal Water Temperatures

Place Temperature
No Stations Reporting

Nearby Weather Stations